createdAt,value
2023-05-19T00:00:32.936Z,82.83
2023-05-19T00:01:32.785Z,83.65
2023-05-19T00:02:32.882Z,82.93
2023-05-19T00:03:32.670Z,82.22
2023-05-19T00:04:32.793Z,83.04
2023-05-19T00:05:32.614Z,83.85
2023-05-19T00:06:32.701Z,82.53
2023-05-19T00:07:32.782Z,83.75
2023-05-19T00:08:32.670Z,82.32
2023-05-19T00:09:32.659Z,82.93
2023-05-19T00:10:32.168Z,83.44
2023-05-19T00:11:32.589Z,82.12
2023-05-19T00:12:32.403Z,83.61
2023-05-19T00:13:32.559Z,82.39
2023-05-19T00:14:32.502Z,83.00
2023-05-19T00:15:32.644Z,83.40
2023-05-19T00:16:32.451Z,83.30
2023-05-19T00:17:32.729Z,81.98
2023-05-19T00:18:32.361Z,83.92
2023-05-19T00:19:32.673Z,82.89
2023-05-19T00:20:32.698Z,82.28
2023-05-19T00:21:32.826Z,83.51
2023-05-19T00:22:32.436Z,83.00
2023-05-19T00:23:32.480Z,81.67
2023-05-19T00:24:32.458Z,82.22
2023-05-19T00:25:32.462Z,82.22
2023-05-19T00:26:32.362Z,83.20
2023-05-19T00:27:32.249Z,82.89
2023-05-19T00:28:32.390Z,82.28
2023-05-19T00:29:32.316Z,83.10
2023-05-19T00:30:32.613Z,82.59
2023-05-19T00:31:32.421Z,82.12
2023-05-19T00:32:32.500Z,83.24
2023-05-19T00:33:32.220Z,82.42
2023-05-19T00:34:32.433Z,83.04
2023-05-19T00:35:32.389Z,83.04
2023-05-19T00:36:32.350Z,82.83
2023-05-19T00:37:32.246Z,83.04
2023-05-19T00:38:31.512Z,83.04
2023-05-19T00:39:33.283Z,83.54
2023-05-19T00:40:32.912Z,82.63
2023-05-19T00:41:31.529Z,82.53
2023-05-19T00:42:33.291Z,83.54
2023-05-19T00:43:32.671Z,83.14
2023-05-19T00:44:32.098Z,81.91
2023-05-19T00:45:32.312Z,82.77
2023-05-19T00:46:32.103Z,83.38
2023-05-19T00:47:32.291Z,83.07
2023-05-19T00:48:32.061Z,83.59
2023-05-19T00:49:32.282Z,84.50
2023-05-19T00:50:32.410Z,83.28
2023-05-19T00:51:32.254Z,82.87
2023-05-19T00:52:31.367Z,83.28
2023-05-19T00:53:32.226Z,82.87
2023-05-19T00:54:32.041Z,83.28
2023-05-19T00:55:31.364Z,83.18
2023-05-19T00:56:32.819Z,83.79
2023-05-19T00:57:31.923Z,83.59
2023-05-19T00:58:32.204Z,83.89
2023-05-19T00:59:32.077Z,83.18
2023-05-19T01:00:31.565Z,83.59
2023-05-19T01:01:32.193Z,84.09
2023-05-19T01:02:32.163Z,83.59
2023-05-19T01:03:32.157Z,83.59
2023-05-19T01:04:32.042Z,83.79
2023-05-19T01:05:31.981Z,84.09
2023-05-19T01:06:32.058Z,84.00
2023-05-19T01:07:31.231Z,83.38
2023-05-19T01:08:32.691Z,83.79
2023-05-19T01:09:31.894Z,82.97
2023-05-19T01:10:32.223Z,83.07
2023-05-19T01:11:32.027Z,82.26
2023-05-19T01:12:32.131Z,82.26
2023-05-19T01:13:31.974Z,81.58
2023-05-19T01:14:31.851Z,83.07
2023-05-19T01:15:31.140Z,82.20
2023-05-19T01:16:31.879Z,82.91
2023-05-19T01:17:31.969Z,83.28
2023-05-19T01:18:31.713Z,84.20
2023-05-19T01:19:32.070Z,83.89
2023-05-19T01:20:31.900Z,81.65
2023-05-19T01:21:31.894Z,81.58
2023-05-19T01:22:31.909Z,83.38
2023-05-19T01:23:31.874Z,82.05
2023-05-19T01:24:31.775Z,81.48
2023-05-19T01:25:32.863Z,82.29
2023-05-19T01:26:31.793Z,81.27
2023-05-19T01:27:31.613Z,83.01
2023-05-19T01:28:31.815Z,81.48
2023-05-19T01:29:31.616Z,81.58
2023-05-19T01:30:32.214Z,81.99
2023-05-19T01:31:31.570Z,81.58
2023-05-19T01:32:31.909Z,82.50
2023-05-19T01:33:31.643Z,81.99
2023-05-19T01:34:31.769Z,82.29
2023-05-19T01:35:31.582Z,81.79
2023-05-19T01:36:31.714Z,81.68
2023-05-19T01:37:31.680Z,81.17
2023-05-19T01:38:31.751Z,82.34
2023-05-19T01:39:31.574Z,82.40
2023-05-19T01:40:31.817Z,82.60
2023-05-19T01:41:31.565Z,82.50
2023-05-19T01:42:31.725Z,82.40
2023-05-19T01:43:31.629Z,83.32
2023-05-19T01:44:31.466Z,83.32
2023-05-19T01:45:31.811Z,82.81
2023-05-19T01:46:31.484Z,82.20
2023-05-19T01:47:31.631Z,82.81
2023-05-19T01:48:31.516Z,82.20
2023-05-19T01:49:31.626Z,83.62
2023-05-19T01:50:31.863Z,84.34
2023-05-19T01:51:31.548Z,83.11
2023-05-19T01:52:31.494Z,83.32
2023-05-19T01:53:31.626Z,83.22
2023-05-19T01:54:30.743Z,83.32
2023-05-19T01:55:31.577Z,83.11
2023-05-19T01:56:30.707Z,82.81
2023-05-19T01:57:31.477Z,82.20
2023-05-19T01:58:31.568Z,81.58
2023-05-19T01:59:31.311Z,81.72
2023-05-19T02:00:31.615Z,83.56
2023-05-19T02:01:31.313Z,82.43
2023-05-19T02:02:31.479Z,81.82
2023-05-19T02:03:31.321Z,82.34
2023-05-19T02:04:31.733Z,83.25
2023-05-19T02:05:31.338Z,82.95
2023-05-19T02:06:32.470Z,83.25
2023-05-19T02:07:30.580Z,83.15
2023-05-19T02:08:32.162Z,82.60
2023-05-19T02:09:31.301Z,82.40
2023-05-19T02:10:31.618Z,83.52
2023-05-19T02:11:31.287Z,81.88
2023-05-19T02:12:31.366Z,82.40
2023-05-19T02:13:31.284Z,80.97
2023-05-19T02:14:31.407Z,81.72
2023-05-19T02:15:31.396Z,81.62
2023-05-19T02:16:31.190Z,81.10
2023-05-19T02:17:31.294Z,81.01
2023-05-19T02:18:31.154Z,81.62
2023-05-19T02:19:31.447Z,80.90
2023-05-19T02:20:31.426Z,81.82
2023-05-19T02:21:31.281Z,82.54
2023-05-19T02:22:31.125Z,81.62
2023-05-19T02:23:30.410Z,81.04
2023-05-19T02:24:31.211Z,83.91
2023-05-19T02:25:30.367Z,82.68
2023-05-19T02:26:31.132Z,82.34
2023-05-19T02:27:31.245Z,82.75
2023-05-19T02:28:31.163Z,81.56
2023-05-19T02:29:31.025Z,82.34
2023-05-19T02:30:31.311Z,82.34
2023-05-19T02:31:31.001Z,81.24
2023-05-19T02:32:31.175Z,81.93
2023-05-19T02:33:30.912Z,82.48
2023-05-19T02:34:31.284Z,81.24
2023-05-19T02:35:31.023Z,81.35
2023-05-19T02:36:31.082Z,81.24
2023-05-19T02:37:32.020Z,82.17
2023-05-19T02:38:32.093Z,81.96
2023-05-19T02:39:31.052Z,81.45
2023-05-19T02:40:31.393Z,81.38
2023-05-19T02:41:30.909Z,82.00
2023-05-19T02:42:30.246Z,83.23
2023-05-19T02:43:30.982Z,83.54
2023-05-19T02:44:30.849Z,82.21
2023-05-19T02:45:31.015Z,83.23
2023-05-19T02:46:30.834Z,83.44
2023-05-19T02:47:31.048Z,83.13
2023-05-19T02:48:30.851Z,83.44
2023-05-19T02:49:30.989Z,83.13
2023-05-19T02:50:30.320Z,83.33
2023-05-19T02:51:30.924Z,83.54
2023-05-19T02:52:30.824Z,83.23
2023-05-19T02:53:30.922Z,83.95
2023-05-19T02:54:30.834Z,82.41
2023-05-19T02:55:31.113Z,83.54
2023-05-19T02:56:30.803Z,82.82
2023-05-19T02:57:30.055Z,84.52
2023-05-19T02:58:31.922Z,83.60
2023-05-19T02:59:30.597Z,83.50
2023-05-19T03:00:32.108Z,82.51
2023-05-19T03:01:30.860Z,82.71
2023-05-19T03:02:30.854Z,83.64
2023-05-19T03:03:30.744Z,83.64
2023-05-19T03:04:30.874Z,83.74
2023-05-19T03:05:30.816Z,83.13
2023-05-19T03:06:30.820Z,83.84
2023-05-19T03:07:30.629Z,84.15
2023-05-19T03:08:30.806Z,82.21
2023-05-19T03:09:29.922Z,83.03
2023-05-19T03:10:30.982Z,83.74
2023-05-19T03:11:30.707Z,83.33
2023-05-19T03:12:29.927Z,83.03
2023-05-19T03:13:30.606Z,83.33
2023-05-19T03:14:30.505Z,83.13
2023-05-19T03:15:31.703Z,84.15
2023-05-19T03:16:30.626Z,83.95
2023-05-19T03:17:31.699Z,84.05
2023-05-19T03:18:30.560Z,84.97
2023-05-19T03:19:29.800Z,84.42
2023-05-19T03:20:31.152Z,83.50
2023-05-19T03:21:30.669Z,82.62
2023-05-19T03:22:30.538Z,83.95
2023-05-19T03:23:29.754Z,83.74
2023-05-19T03:24:30.468Z,83.54
2023-05-19T03:25:30.642Z,83.44
2023-05-19T03:26:30.668Z,83.95
2023-05-19T03:27:30.606Z,84.36
2023-05-19T03:28:30.557Z,84.87
2023-05-19T03:29:30.352Z,84.46
2023-05-19T03:30:30.670Z,83.95
2023-05-19T03:31:30.546Z,84.93
2023-05-19T03:32:30.514Z,83.95
2023-05-19T03:33:30.473Z,85.03
2023-05-19T03:34:30.498Z,84.22
2023-05-19T03:35:30.388Z,85.44
2023-05-19T03:36:29.679Z,84.31
2023-05-19T03:37:30.417Z,83.03
2023-05-19T03:38:30.449Z,83.95
2023-05-19T03:39:29.638Z,85.07
2023-05-19T03:40:30.506Z,84.83
2023-05-19T03:41:29.668Z,85.64
2023-05-19T03:42:30.368Z,84.42
2023-05-19T03:43:30.378Z,84.72
2023-05-19T03:44:30.167Z,85.40
2023-05-19T03:45:29.603Z,83.87
2023-05-19T03:46:30.256Z,83.25
2023-05-19T03:47:30.372Z,83.56
2023-05-19T03:48:30.123Z,84.17
2023-05-19T03:49:30.412Z,83.46
2023-05-19T03:50:30.348Z,83.32
2023-05-19T03:51:30.390Z,83.01
2023-05-19T03:52:29.479Z,83.32
2023-05-19T03:53:31.059Z,81.48
2023-05-19T03:54:30.447Z,80.76
2023-05-19T03:55:29.458Z,80.76
2023-05-19T03:56:30.321Z,81.38
2023-05-19T03:57:29.438Z,81.58
2023-05-19T03:58:30.914Z,80.97
2023-05-19T03:59:30.337Z,82.26
2023-05-19T04:00:29.428Z,82.73
2023-05-19T04:01:31.266Z,82.42
2023-05-19T04:02:30.616Z,82.12
2023-05-19T04:03:29.433Z,80.38
2023-05-19T04:04:30.941Z,79.46
2023-05-19T04:05:30.134Z,80.69
2023-05-19T04:06:29.386Z,79.60
2023-05-19T04:07:30.177Z,79.77
2023-05-19T04:08:30.127Z,80.48
2023-05-19T04:09:30.077Z,80.07
2023-05-19T04:10:29.378Z,80.24
2023-05-19T04:11:30.114Z,79.52
2023-05-19T04:12:29.247Z,79.12
2023-05-19T04:13:30.647Z,78.81
2023-05-19T04:14:29.952Z,80.10
2023-05-19T04:15:30.135Z,78.77
2023-05-19T04:16:29.224Z,79.28
2023-05-19T04:17:30.806Z,78.27
2023-05-19T04:18:30.180Z,78.88
2023-05-19T04:19:29.253Z,78.47
2023-05-19T04:20:30.659Z,79.45
2023-05-19T04:21:30.000Z,77.92
2023-05-19T04:22:29.194Z,79.14
2023-05-19T04:23:30.988Z,76.39
2023-05-19T04:24:29.804Z,77.45
2023-05-19T04:25:29.958Z,78.67
2023-05-19T04:26:29.145Z,79.90
2023-05-19T04:27:29.915Z,78.64
2023-05-19T04:28:29.914Z,77.04
2023-05-19T04:29:29.938Z,77.69
2023-05-19T04:30:29.105Z,79.43
2023-05-19T04:31:30.890Z,79.90
2023-05-19T04:32:30.119Z,80.20
2023-05-19T04:33:29.708Z,78.94
2023-05-19T04:34:29.798Z,77.82
2023-05-19T04:35:29.835Z,77.82
2023-05-19T04:36:28.991Z,79.04
2023-05-19T04:37:30.796Z,79.66
2023-05-19T04:38:30.027Z,79.00
2023-05-19T04:39:29.005Z,78.19
2023-05-19T04:40:29.880Z,78.50
2023-05-19T04:41:29.051Z,77.37
2023-05-19T04:42:29.956Z,77.27
2023-05-19T04:43:29.735Z,77.64
2023-05-19T04:44:28.931Z,76.73
2023-05-19T04:45:30.552Z,77.03
2023-05-19T04:46:29.991Z,76.42
2023-05-19T04:47:29.818Z,76.12
2023-05-19T04:48:28.865Z,76.62
2023-05-19T04:49:29.706Z,76.22
2023-05-19T04:50:29.699Z,76.90
2023-05-19T04:51:30.516Z,75.40
2023-05-19T04:52:28.844Z,76.32
2023-05-19T04:53:30.608Z,76.22
2023-05-19T04:54:29.542Z,76.49
2023-05-19T04:55:29.616Z,74.55
2023-05-19T04:56:29.562Z,74.93
2023-05-19T04:57:28.847Z,75.50
2023-05-19T04:58:29.688Z,74.28
2023-05-19T04:59:28.800Z,74.24
2023-05-19T05:00:30.271Z,73.63
2023-05-19T05:01:29.416Z,73.30
2023-05-19T05:02:29.826Z,73.23
2023-05-19T05:03:29.489Z,72.99
2023-05-19T05:04:29.573Z,73.67
2023-05-19T05:05:28.687Z,72.21
2023-05-19T05:06:29.562Z,68.52
2023-05-19T05:07:31.662Z,70.15
2023-05-19T05:08:29.571Z,67.82
2023-05-19T05:09:28.634Z,67.65
2023-05-19T05:10:29.500Z,67.95
2023-05-19T05:11:28.623Z,67.44
2023-05-19T05:12:30.313Z,68.19
2023-05-19T05:13:29.402Z,69.23
2023-05-19T05:14:29.501Z,68.55
2023-05-19T05:15:28.600Z,68.96
2023-05-19T05:16:30.582Z,70.35
2023-05-19T05:17:29.980Z,68.55
2023-05-19T05:18:29.389Z,68.96
2023-05-19T05:19:28.671Z,71.26
2023-05-19T05:20:30.357Z,71.64
2023-05-19T05:21:29.769Z,70.21
2023-05-19T05:22:29.160Z,68.59
2023-05-19T05:23:28.559Z,70.56
2023-05-19T05:24:30.292Z,68.73
2023-05-19T05:25:29.605Z,64.39
2023-05-19T05:26:29.212Z,63.35
2023-05-19T05:27:29.351Z,61.57
2023-05-19T05:28:29.283Z,59.80
2023-05-19T05:29:29.470Z,59.42
2023-05-19T05:30:29.432Z,63.12
2023-05-19T05:31:28.410Z,62.04
2023-05-19T05:32:30.104Z,62.87
2023-05-19T05:33:29.873Z,63.01
2023-05-19T05:34:29.226Z,62.90
2023-05-19T05:35:28.399Z,63.95
2023-05-19T05:36:29.291Z,64.18
2023-05-19T05:37:28.377Z,64.92
2023-05-19T05:38:29.989Z,66.47
2023-05-19T05:39:29.083Z,67.28
2023-05-19T05:40:28.341Z,66.80
2023-05-19T05:41:29.976Z,68.05
2023-05-19T05:42:29.794Z,68.23
2023-05-19T05:43:28.280Z,66.78
2023-05-19T05:44:29.954Z,62.74
2023-05-19T05:45:29.635Z,62.95
2023-05-19T05:46:28.389Z,61.27
2023-05-19T05:47:29.100Z,62.62
2023-05-19T05:48:28.941Z,63.29
2023-05-19T05:49:28.261Z,60.31
2023-05-19T05:50:30.071Z,59.50
2023-05-19T05:51:29.670Z,60.05
2023-05-19T05:52:29.081Z,57.98
2023-05-19T05:53:28.211Z,57.92
2023-05-19T05:54:28.940Z,56.82
2023-05-19T05:55:29.042Z,56.44
2023-05-19T05:56:29.050Z,56.70
2023-05-19T05:57:28.166Z,58.67
2023-05-19T05:58:28.933Z,59.37
2023-05-19T05:59:28.954Z,60.91
2023-05-19T06:00:28.105Z,58.69
2023-05-19T06:01:29.880Z,59.30
2023-05-19T06:02:28.944Z,60.81
2023-05-19T06:03:28.106Z,59.47
2023-05-19T06:04:29.843Z,58.06
2023-05-19T06:05:29.378Z,59.90
2023-05-19T06:06:28.043Z,60.84
2023-05-19T06:07:28.818Z,59.83
2023-05-19T06:08:28.899Z,59.76
2023-05-19T06:09:28.026Z,60.89
2023-05-19T06:10:29.759Z,60.39
2023-05-19T06:11:28.806Z,59.89
2023-05-19T06:12:28.065Z,62.59
2023-05-19T06:13:29.457Z,60.39
2023-05-19T06:14:28.777Z,61.30
2023-05-19T06:15:27.966Z,62.64
2023-05-19T06:16:29.793Z,62.31
2023-05-19T06:17:29.224Z,62.92
2023-05-19T06:18:27.977Z,62.99
2023-05-19T06:19:29.655Z,61.00
2023-05-19T06:20:29.434Z,60.60
2023-05-19T06:21:28.760Z,61.10
2023-05-19T06:22:28.836Z,63.12
2023-05-19T06:23:27.947Z,60.97
2023-05-19T06:24:29.503Z,61.14
2023-05-19T06:25:28.789Z,61.35
2023-05-19T06:26:27.817Z,61.61
2023-05-19T06:27:28.898Z,60.58
2023-05-19T06:28:27.818Z,58.69
2023-05-19T06:29:29.452Z,59.17
2023-05-19T06:30:28.961Z,59.37
2023-05-19T06:31:27.864Z,59.30
2023-05-19T06:32:28.559Z,59.90
2023-05-19T06:33:29.090Z,60.00
2023-05-19T06:34:27.835Z,61.18
2023-05-19T06:35:28.871Z,58.09
2023-05-19T06:36:27.760Z,60.94
2023-05-19T06:37:29.136Z,60.94
2023-05-19T06:38:28.873Z,60.46
2023-05-19T06:39:27.716Z,62.18
2023-05-19T06:40:29.326Z,63.49
2023-05-19T06:41:28.776Z,62.38
2023-05-19T06:42:28.549Z,62.08
2023-05-19T06:43:27.988Z,61.47
2023-05-19T06:44:28.471Z,62.45
2023-05-19T06:45:28.558Z,61.77
2023-05-19T06:46:27.721Z,62.05
2023-05-19T06:47:28.467Z,62.55
2023-05-19T06:48:27.580Z,62.15
2023-05-19T06:49:29.305Z,60.66
2023-05-19T06:50:28.901Z,62.79
2023-05-19T06:51:27.626Z,59.86
2023-05-19T06:52:29.357Z,60.69
2023-05-19T06:53:28.740Z,61.73
2023-05-19T06:54:27.573Z,62.64
2023-05-19T06:55:29.598Z,64.26
2023-05-19T06:56:28.961Z,60.62
2023-05-19T06:57:43.969Z,60.96
2023-05-19T06:58:29.051Z,63.99
2023-05-19T06:59:28.295Z,66.21
2023-05-19T07:00:27.461Z,65.17
2023-05-19T07:01:29.276Z,64.36
2023-05-19T07:02:28.524Z,64.39
2023-05-19T07:03:27.642Z,64.83
2023-05-19T07:04:28.408Z,66.67
2023-05-19T07:05:27.438Z,66.95
2023-05-19T07:06:28.222Z,65.77
2023-05-19T07:07:27.443Z,65.80
2023-05-19T07:08:28.609Z,66.97
2023-05-19T07:09:27.758Z,67.72
2023-05-19T07:10:27.418Z,67.92
2023-05-19T07:11:28.820Z,68.29
2023-05-19T07:12:28.240Z,67.28
2023-05-19T07:13:27.735Z,67.89
2023-05-19T07:14:29.070Z,67.65
2023-05-19T07:15:28.633Z,66.44
2023-05-19T07:16:27.362Z,68.46
2023-05-19T07:17:29.509Z,67.72
2023-05-19T07:18:28.978Z,67.93
2023-05-19T07:19:28.167Z,68.40
2023-05-19T07:20:27.245Z,66.47
2023-05-19T07:21:28.086Z,67.01
2023-05-19T07:22:27.351Z,64.79
2023-05-19T07:23:28.058Z,66.61
2023-05-19T07:24:27.219Z,67.62
2023-05-19T07:25:28.819Z,66.88
2023-05-19T07:26:28.232Z,65.97
2023-05-19T07:27:27.178Z,67.49
2023-05-19T07:28:28.693Z,67.29
2023-05-19T07:29:28.044Z,65.87
2023-05-19T07:30:27.542Z,65.97
2023-05-19T07:31:28.897Z,66.98
2023-05-19T07:32:28.331Z,66.07
2023-05-19T07:33:27.954Z,66.24
2023-05-19T07:34:27.111Z,65.47
2023-05-19T07:35:27.889Z,65.67
2023-05-19T07:36:27.950Z,66.78
2023-05-19T07:37:27.709Z,64.45
2023-05-19T07:38:27.088Z,65.87
2023-05-19T07:39:28.850Z,64.96
2023-05-19T07:40:28.329Z,64.65
2023-05-19T07:41:27.804Z,66.07
2023-05-19T07:42:27.028Z,66.17
2023-05-19T07:43:27.808Z,65.36
2023-05-19T07:44:27.886Z,65.59
2023-05-19T07:45:27.789Z,65.93
2023-05-19T07:46:27.677Z,67.55
2023-05-19T07:47:26.986Z,66.64
2023-05-19T07:48:28.875Z,67.05
2023-05-19T07:49:27.972Z,67.11
2023-05-19T07:50:27.012Z,67.62
2023-05-19T07:51:27.725Z,67.29
2023-05-19T07:52:26.896Z,67.15
2023-05-19T07:53:28.919Z,67.63
2023-05-19T07:54:28.556Z,65.27
2023-05-19T07:55:26.888Z,65.88
2023-05-19T07:56:27.691Z,63.28
2023-05-19T07:57:27.666Z,66.92
2023-05-19T07:58:27.228Z,64.79
2023-05-19T07:59:27.605Z,65.61
2023-05-19T08:00:26.823Z,65.61
2023-05-19T08:01:28.570Z,65.61
2023-05-19T08:02:28.046Z,66.61
2023-05-19T08:03:27.317Z,66.78
2023-05-19T08:04:28.533Z,64.46
2023-05-19T08:05:27.981Z,64.36
2023-05-19T08:06:27.769Z,64.53
2023-05-19T08:07:26.790Z,62.82
2023-05-19T08:08:28.414Z,62.48
2023-05-19T08:09:27.837Z,63.67
2023-05-19T08:10:26.745Z,63.49
2023-05-19T08:11:28.261Z,64.67
2023-05-19T08:12:27.586Z,64.46
2023-05-19T08:13:27.034Z,63.45
2023-05-19T08:14:28.511Z,63.93
2023-05-19T08:15:27.489Z,64.20
2023-05-19T08:16:26.830Z,62.25
2023-05-19T08:17:27.615Z,62.63
2023-05-19T08:18:27.277Z,61.76
2023-05-19T08:19:27.639Z,60.39
2023-05-19T08:20:26.609Z,58.80
2023-05-19T08:21:28.110Z,57.09
2023-05-19T08:22:27.358Z,57.77
2023-05-19T08:23:27.429Z,58.27
2023-05-19T08:24:26.591Z,57.17
2023-05-19T08:25:28.380Z,57.29
2023-05-19T08:26:27.606Z,58.65
2023-05-19T08:27:26.592Z,58.88
2023-05-19T08:28:28.317Z,59.84
2023-05-19T08:29:27.854Z,60.88
2023-05-19T08:30:26.513Z,59.92
2023-05-19T08:31:27.168Z,60.47
2023-05-19T08:32:27.362Z,59.41
2023-05-19T08:33:27.459Z,57.01
2023-05-19T08:34:27.889Z,55.10
2023-05-19T08:35:27.110Z,55.03
2023-05-19T08:36:26.428Z,56.46
2023-05-19T08:37:27.866Z,57.19
2023-05-19T08:38:26.908Z,58.57
2023-05-19T08:39:27.241Z,56.58
2023-05-19T08:40:26.410Z,54.43
2023-05-19T08:41:27.112Z,54.27
2023-05-19T08:42:27.232Z,52.09
2023-05-19T08:43:27.144Z,52.59
2023-05-19T08:44:27.204Z,50.92
2023-05-19T08:45:27.280Z,52.94
2023-05-19T08:46:27.058Z,52.02
2023-05-19T08:47:27.171Z,51.12
2023-05-19T08:48:27.159Z,50.82
2023-05-19T08:49:27.110Z,52.24
2023-05-19T08:50:26.566Z,53.67
2023-05-19T08:51:27.191Z,53.87
2023-05-19T08:52:27.000Z,52.47
2023-05-19T08:53:33.743Z,52.34
2023-05-19T08:54:27.747Z,51.12
2023-05-19T08:55:27.167Z,50.72
2023-05-19T08:56:26.982Z,52.17
2023-05-19T08:57:27.075Z,50.92
2023-05-19T08:58:28.649Z,52.29
2023-05-19T08:59:27.036Z,51.20
2023-05-19T09:00:27.028Z,48.28
2023-05-19T09:01:26.927Z,48.80
2023-05-19T09:02:27.004Z,45.45
2023-05-19T09:03:26.986Z,47.49
2023-05-19T09:04:28.405Z,48.48
2023-05-19T09:05:26.202Z,48.40
2023-05-19T09:06:27.004Z,48.03
2023-05-19T09:07:26.865Z,46.51
2023-05-19T09:08:26.928Z,46.14
2023-05-19T09:09:26.145Z,47.27
2023-05-19T09:10:29.179Z,45.23
2023-05-19T09:11:27.513Z,46.60
2023-05-19T09:12:26.916Z,44.97
2023-05-19T09:13:26.848Z,43.32
2023-05-19T09:14:26.106Z,45.64
2023-05-19T09:15:26.785Z,48.85
2023-05-19T09:16:28.550Z,48.68
2023-05-19T09:17:26.791Z,47.96
2023-05-19T09:18:25.976Z,50.43
2023-05-19T09:19:26.942Z,47.96
2023-05-19T09:20:26.004Z,49.98
2023-05-19T09:21:27.599Z,51.25
2023-05-19T09:22:26.902Z,50.05
2023-05-19T09:23:26.754Z,48.49
2023-05-19T09:24:25.966Z,47.14
2023-05-19T09:25:26.785Z,46.80
2023-05-19T09:26:26.686Z,45.82
2023-05-19T09:27:25.906Z,44.29
2023-05-19T09:28:26.656Z,41.53
2023-05-19T09:29:26.887Z,42.92
2023-05-19T09:30:26.602Z,45.31
2023-05-19T09:31:26.666Z,45.33
2023-05-19T09:32:27.069Z,46.31
2023-05-19T09:33:26.468Z,46.83
2023-05-19T09:34:25.828Z,45.75
2023-05-19T09:35:26.518Z,46.77
2023-05-19T09:36:26.666Z,47.21
2023-05-19T09:37:25.786Z,47.19
2023-05-19T09:38:26.599Z,46.27
2023-05-19T09:39:26.515Z,48.64
2023-05-19T09:40:25.767Z,45.41
2023-05-19T09:41:26.537Z,46.75
2023-05-19T09:42:26.530Z,47.86
2023-05-19T09:43:26.497Z,47.89
2023-05-19T09:44:25.715Z,45.81
2023-05-19T09:45:26.513Z,46.42
2023-05-19T09:46:25.733Z,46.31
2023-05-19T09:47:26.551Z,46.95
2023-05-19T09:48:26.339Z,49.51
2023-05-19T09:49:25.654Z,46.08
2023-05-19T09:50:27.304Z,46.56
2023-05-19T09:51:26.436Z,45.41
2023-05-19T09:52:25.657Z,46.72
2023-05-19T09:53:27.290Z,47.94
2023-05-19T09:54:26.626Z,50.23
2023-05-19T09:55:26.451Z,51.77
2023-05-19T09:56:26.258Z,51.20
2023-05-19T09:57:25.579Z,50.97
2023-05-19T09:58:26.547Z,51.79
2023-05-19T09:59:26.408Z,50.82
2023-05-19T10:00:26.334Z,50.25
2023-05-19T10:01:26.214Z,50.87
2023-05-19T10:02:25.612Z,49.93
2023-05-19T10:03:26.184Z,50.79
2023-05-19T10:04:26.390Z,50.20
2023-05-19T10:05:26.204Z,52.69
2023-05-19T10:06:25.464Z,53.34
2023-05-19T10:07:27.152Z,56.07
2023-05-19T10:08:26.305Z,55.57
2023-05-19T10:09:25.520Z,50.74
2023-05-19T10:10:27.120Z,51.79
2023-05-19T10:11:26.125Z,49.48
2023-05-19T10:12:26.262Z,48.41
2023-05-19T10:13:25.414Z,47.72
2023-05-19T10:14:27.065Z,47.87
2023-05-19T10:15:26.516Z,47.01
2023-05-19T10:16:26.012Z,45.23
2023-05-19T10:17:25.401Z,45.56
2023-05-19T10:18:25.977Z,43.77
2023-05-19T10:19:25.432Z,43.83
2023-05-19T10:20:26.735Z,43.21
2023-05-19T10:21:25.885Z,43.19
2023-05-19T10:22:26.010Z,43.48
2023-05-19T10:23:25.334Z,44.78
2023-05-19T10:24:26.005Z,44.32
2023-05-19T10:25:25.291Z,43.99
2023-05-19T10:26:26.052Z,43.84
2023-05-19T10:27:25.253Z,46.41
2023-05-19T10:28:26.085Z,48.28
2023-05-19T10:29:25.618Z,50.87
2023-05-19T10:30:26.679Z,53.31
2023-05-19T10:31:26.034Z,53.64
2023-05-19T10:32:25.533Z,52.97
2023-05-19T10:33:26.896Z,53.39
2023-05-19T10:34:26.036Z,56.99
2023-05-19T10:35:25.505Z,53.59
2023-05-19T10:36:25.443Z,54.42
2023-05-19T10:37:26.133Z,54.72
2023-05-19T10:38:25.437Z,55.24
2023-05-19T10:39:25.801Z,55.65
2023-05-19T10:40:25.113Z,56.74
2023-05-19T10:41:26.806Z,55.92
2023-05-19T10:42:25.992Z,55.92
2023-05-19T10:43:25.096Z,56.52
2023-05-19T10:44:25.923Z,55.32
2023-05-19T10:45:25.054Z,55.85
2023-05-19T10:46:27.211Z,56.45
2023-05-19T10:47:26.553Z,56.02
2023-05-19T10:48:25.672Z,55.05
2023-05-19T10:49:25.048Z,56.70
2023-05-19T10:50:25.709Z,58.13
2023-05-19T10:51:25.838Z,58.13
2023-05-19T10:52:26.033Z,58.86
2023-05-19T10:53:25.826Z,57.90
2023-05-19T10:54:25.638Z,56.74
2023-05-19T10:55:24.963Z,56.15
2023-05-19T10:56:25.709Z,56.42
2023-05-19T10:57:25.798Z,56.39
2023-05-19T10:58:25.920Z,56.49
2023-05-19T10:59:24.929Z,56.70
2023-05-19T11:00:26.412Z,55.34
2023-05-19T11:01:25.955Z,55.64
2023-05-19T11:02:25.808Z,54.47
2023-05-19T11:03:25.572Z,55.74
2023-05-19T11:04:25.786Z,57.20
2023-05-19T11:05:25.523Z,57.63
2023-05-19T11:06:25.700Z,58.43
2023-05-19T11:07:24.880Z,58.61
2023-05-19T11:08:25.630Z,58.83
2023-05-19T11:09:34.087Z,59.33
2023-05-19T11:10:26.676Z,59.33
2023-05-19T11:11:24.792Z,59.20
2023-05-19T11:12:26.558Z,58.33
2023-05-19T11:13:26.135Z,59.13
2023-05-19T11:14:24.772Z,59.00
2023-05-19T11:15:26.594Z,59.11
2023-05-19T11:16:25.747Z,59.00
2023-05-19T11:17:25.564Z,59.83
2023-05-19T11:18:25.339Z,60.66
2023-05-19T11:19:24.798Z,61.57
2023-05-19T11:20:25.373Z,61.17
2023-05-19T11:21:24.831Z,61.72
2023-05-19T11:22:26.258Z,62.36
2023-05-19T11:23:25.487Z,62.76
2023-05-19T11:24:25.328Z,62.19
2023-05-19T11:25:25.486Z,63.90
2023-05-19T11:26:25.388Z,63.36
2023-05-19T11:27:25.563Z,62.83
2023-05-19T11:28:25.390Z,61.93
2023-05-19T11:29:25.569Z,61.76
2023-05-19T11:30:25.379Z,63.39
2023-05-19T11:31:24.589Z,63.22
2023-05-19T11:32:25.364Z,63.42
2023-05-19T11:33:24.609Z,64.10
2023-05-19T11:34:26.145Z,62.79
2023-05-19T11:35:25.564Z,62.76
2023-05-19T11:36:25.366Z,62.23
2023-05-19T11:37:24.506Z,63.00
2023-05-19T11:38:25.981Z,63.64
2023-05-19T11:39:25.218Z,63.67
2023-05-19T11:40:24.868Z,64.57
2023-05-19T11:41:25.992Z,64.57
2023-05-19T11:42:25.278Z,64.64
2023-05-19T11:43:24.478Z,64.11
2023-05-19T11:44:25.654Z,62.17
2023-05-19T11:45:25.276Z,63.00
2023-05-19T11:46:26.138Z,64.14
2023-05-19T11:47:25.238Z,63.73
2023-05-19T11:48:24.480Z,64.43
2023-05-19T11:49:25.186Z,64.91
2023-05-19T11:50:24.435Z,63.93
2023-05-19T11:51:25.969Z,63.67
2023-05-19T11:52:26.105Z,64.27
2023-05-19T11:53:24.350Z,64.30
2023-05-19T11:54:25.094Z,65.10
2023-05-19T11:55:25.295Z,64.80
2023-05-19T11:56:25.208Z,65.10
2023-05-19T11:57:25.168Z,64.87
2023-05-19T11:58:25.041Z,63.73
2023-05-19T11:59:24.666Z,63.26
2023-05-19T12:00:25.335Z,63.13
2023-05-19T12:01:24.946Z,63.56
2023-05-19T12:02:25.388Z,64.67
2023-05-19T12:03:24.922Z,65.10
2023-05-19T12:04:25.035Z,65.70
2023-05-19T12:05:25.023Z,65.80
2023-05-19T12:06:24.264Z,65.60
2023-05-19T12:07:26.165Z,65.67
2023-05-19T12:08:25.045Z,64.50
2023-05-19T12:09:24.875Z,65.50
2023-05-19T12:10:25.119Z,66.11
2023-05-19T12:11:24.156Z,65.91
2023-05-19T12:12:25.870Z,66.31
2023-05-19T12:13:24.982Z,65.30
2023-05-19T12:14:24.114Z,65.10
2023-05-19T12:15:25.827Z,65.27
2023-05-19T12:16:25.082Z,64.64
2023-05-19T12:17:24.892Z,63.93
2023-05-19T12:18:24.086Z,64.77
2023-05-19T12:19:25.978Z,66.51
2023-05-19T12:20:25.091Z,66.47
2023-05-19T12:21:24.043Z,66.08
2023-05-19T12:22:24.967Z,67.21
2023-05-19T12:23:24.875Z,66.00
2023-05-19T12:24:24.814Z,64.37
2023-05-19T12:25:24.075Z,63.87
2023-05-19T12:26:25.455Z,63.46
2023-05-19T12:27:25.546Z,63.87
2023-05-19T12:28:24.705Z,63.73
2023-05-19T12:29:23.955Z,63.23
2023-05-19T12:30:25.471Z,63.53
2023-05-19T12:31:24.565Z,64.61
2023-05-19T12:32:24.925Z,64.94
2023-05-19T12:33:24.516Z,64.27
2023-05-19T12:34:24.706Z,64.40
2023-05-19T12:35:24.581Z,65.94
2023-05-19T12:36:23.946Z,66.44
2023-05-19T12:37:24.633Z,67.14
2023-05-19T12:38:24.654Z,67.74
2023-05-19T12:39:24.556Z,66.64
2023-05-19T12:40:24.712Z,67.78
2023-05-19T12:41:24.606Z,68.01
2023-05-19T12:42:24.706Z,67.94
2023-05-19T12:43:24.636Z,68.35
2023-05-19T12:44:24.766Z,68.95
2023-05-19T12:45:25.556Z,69.72
2023-05-19T12:46:23.897Z,68.59
2023-05-19T12:47:24.574Z,67.98
2023-05-19T12:48:23.822Z,68.15
2023-05-19T12:49:25.287Z,67.31
2023-05-19T12:50:24.409Z,67.41
2023-05-19T12:51:25.126Z,67.21
2023-05-19T12:52:23.706Z,66.84